• Join FlightAware (Why Join?)
  • Login
  • US Flag 
06:36AM EST


 

Airport Tracker/Info


-or-


 

Live Flight TrackerFlight Track Log ✈ DAL3606 ✈ 05-Oct-2013 ✈ KMSP - KCWA

Flight Track Log - Related Links

Times and Time Zones

All times are in EDT time to prevent confusion due to time zone crossing. See the DAL3606 flight status page for this flight to view local times or setup timezone preferences in your user account.

Time Position Orientation Groundspeed Altitude Reporting Facility
EDT Latitude Longitude Course Direction KTS MPH feet Rate Location/Type
02:11PM 44.8833 -93.1833 106° East 156 180 1,900  Level Minneapolis TRACON
02:11PM 44.8711 -93.1225 106° East 167 192 3,000 1,440 Climbing Minneapolis Center
02:12PM 44.9106 -93.0594 49° Northeast 259 298 4,600 2,160 Climbing Minneapolis Center
02:13PM 44.9856 -93.0183 21° North 288 331 7,500 2,580 Climbing Minneapolis Center
02:14PM 45.0575 -92.9564 31° Northeast 301 346 10,000 1,740 Climbing Minneapolis Center
02:15PM 45.1006 -92.8417 62° Northeast 331 381 11,100 1,380 Climbing Minneapolis Center
02:16PM 45.1475 -92.7158 62° Northeast 358 412 12,900 1,620 Climbing Minneapolis Center
02:18PM 45.1961 -92.5831 63° Northeast 378 435 14,500 1,740 Climbing Minneapolis Center
02:19PM 45.2556 -92.4214 62° Northeast 384 442 16,500 1,200 Climbing Minneapolis Center
02:20PM 45.2908 -92.2767 71° East 389 448 17,000 240 Climbing Minneapolis Center
02:21PM 45.3017 -92.1228 84° East 393 452 17,000  Level Minneapolis Center
02:22PM 45.3125 -91.9706 84° East 390 449 17,000  Level Minneapolis Center
02:23PM 45.2872 -91.8292 104° East 380 437 17,000  Level Minneapolis Center
02:24PM 45.2544 -91.6903 108° East 374 430 17,000  Level Minneapolis Center
02:25PM 45.2217 -91.5503 108° East 374 430 17,000  Level Minneapolis Center
02:26PM 45.1839 -91.3828 108° East 373 429 17,000  Level Minneapolis Center
02:27PM 45.1511 -91.2433 108° East 373 429 17,000 -540 Level Minneapolis Center
02:28PM 45.1175 -91.0950 108° East 377 434 15,900 -1,080 Descending Minneapolis Center
02:29PM 45.0844 -90.9561 109° East 385 443 14,800 -1,080 Descending Minneapolis Center
02:30PM 45.0519 -90.8103 107° East 378 435 13,700 -1,080 Descending Minneapolis Center
02:31PM 45.0211 -90.6753 108° East 366 421 12,600 -1,080 Descending Minneapolis Center
02:32PM 44.9892 -90.5433 109° East 358 412 11,500 -1,200 Descending Minneapolis Center
02:33PM 44.9550 -90.4039 109° East 350 403 10,200 -780 Descending Minneapolis Center
02:34PM 44.9236 -90.2728 109° East 341 392 9,900 -180 Descending Minneapolis Center
02:35PM 44.8931 -90.1419 108° East 336 387 9,900 -480 Level Minneapolis Center
02:36PM 44.8461 -90.0417 123° Southeast 285 328 9,000 -1,440 Descending Minneapolis Center
02:37PM 44.7972 -89.9531 128° Southeast 276 318 7,000 -1,860 Descending Minneapolis Center
02:38PM 44.7594 -89.8703 123° Southeast 260 299 5,200 -1,800 Descending Minneapolis Center
02:39PM 44.7639 -89.7781 86° East 228 262 3,400 -1,620 Descending Minneapolis Center
02:40PM 44.7736 -89.7147 78° East 181 208 1,900 -1,500 Descending Minneapolis Center
02:42PM 44.7667 -89.6667 125° Southeast  Level FlightAware Approximate